sensor_id;sensor_type;location;lat;lon;timestamp;P1;durP1;ratioP1;P2;durP2;ratioP2
19388;SDS011;9830;41.876;23.474;2023-04-15T00:01:59;0.97;;;0.87;;
19388;SDS011;9830;41.876;23.474;2023-04-15T00:04:25;1.60;;;1.40;;
19388;SDS011;9830;41.876;23.474;2023-04-15T00:06:52;1.23;;;1.13;;
19388;SDS011;9830;41.876;23.474;2023-04-15T00:09:18;1.10;;;0.63;;
19388;SDS011;9830;41.876;23.474;2023-04-15T00:11:44;0.73;;;0.73;;
19388;SDS011;9830;41.876;23.474;2023-04-15T00:14:11;2.43;;;1.40;;
19388;SDS011;9830;41.876;23.474;2023-04-15T00:16:37;2.57;;;1.20;;
19388;SDS011;9830;41.876;23.474;2023-04-15T00:19:03;0.80;;;0.80;;
19388;SDS011;9830;41.876;23.474;2023-04-15T00:21:29;2.53;;;1.03;;
19388;SDS011;9830;41.876;23.474;2023-04-15T00:23:55;3.73;;;1.80;;
19388;SDS011;9830;41.876;23.474;2023-04-15T00:26:21;1.17;;;1.17;;
19388;SDS011;9830;41.876;23.474;2023-04-15T00:28:47;6.70;;;2.03;;
19388;SDS011;9830;41.876;23.474;2023-04-15T00:31:12;0.80;;;0.73;;
19388;SDS011;9830;41.876;23.474;2023-04-15T00:33:39;1.00;;;1.00;;
19388;SDS011;9830;41.876;23.474;2023-04-15T00:36:05;2.80;;;2.13;;
19388;SDS011;9830;41.876;23.474;2023-04-15T00:38:32;0.77;;;0.77;;
19388;SDS011;9830;41.876;23.474;2023-04-15T00:40:58;1.70;;;1.60;;
19388;SDS011;9830;41.876;23.474;2023-04-15T00:43:24;0.43;;;0.43;;
19388;SDS011;9830;41.876;23.474;2023-04-15T00:45:50;4.33;;;1.27;;
19388;SDS011;9830;41.876;23.474;2023-04-15T00:48:18;0.43;;;0.43;;
19388;SDS011;9830;41.876;23.474;2023-04-15T00:50:44;0.87;;;0.87;;
19388;SDS011;9830;41.876;23.474;2023-04-15T00:53:10;17.50;;;1.43;;
19388;SDS011;9830;41.876;23.474;2023-04-15T00:55:36;5.30;;;0.87;;
19388;SDS011;9830;41.876;23.474;2023-04-15T00:58:02;2.73;;;2.10;;
19388;SDS011;9830;41.876;23.474;2023-04-15T01:00:28;2.67;;;1.60;;
19388;SDS011;9830;41.876;23.474;2023-04-15T01:02:54;2.23;;;1.73;;
19388;SDS011;9830;41.876;23.474;2023-04-15T01:05:20;1.33;;;1.30;;
19388;SDS011;9830;41.876;23.474;2023-04-15T01:07:46;0.20;;;0.20;;
19388;SDS011;9830;41.876;23.474;2023-04-15T01:10:12;1.83;;;0.97;;
19388;SDS011;9830;41.876;23.474;2023-04-15T01:12:38;2.30;;;1.63;;
19388;SDS011;9830;41.876;23.474;2023-04-15T01:15:04;0.53;;;0.53;;
19388;SDS011;9830;41.876;23.474;2023-04-15T01:17:30;9.20;;;2.80;;
19388;SDS011;9830;41.876;23.474;2023-04-15T01:19:56;1.63;;;1.50;;
19388;SDS011;9830;41.876;23.474;2023-04-15T01:22:23;1.50;;;1.03;;
19388;SDS011;9830;41.876;23.474;2023-04-15T01:24:54;1.90;;;1.00;;
19388;SDS011;9830;41.876;23.474;2023-04-15T01:27:26;4.73;;;2.17;;
19388;SDS011;9830;41.876;23.474;2023-04-15T01:29:51;1.90;;;1.67;;
19388;SDS011;9830;41.876;23.474;2023-04-15T01:32:17;4.40;;;2.10;;
19388;SDS011;9830;41.876;23.474;2023-04-15T01:34:43;7.53;;;1.97;;
19388;SDS011;9830;41.876;23.474;2023-04-15T01:37:09;1.87;;;1.10;;
19388;SDS011;9830;41.876;23.474;2023-04-15T01:39:35;1.40;;;1.10;;
19388;SDS011;9830;41.876;23.474;2023-04-15T01:42:01;2.10;;;2.00;;
19388;SDS011;9830;41.876;23.474;2023-04-15T01:44:28;2.93;;;1.53;;
19388;SDS011;9830;41.876;23.474;2023-04-15T01:46:53;2.33;;;1.83;;
19388;SDS011;9830;41.876;23.474;2023-04-15T01:49:19;1.20;;;1.13;;
19388;SDS011;9830;41.876;23.474;2023-04-15T01:51:45;2.13;;;0.93;;
19388;SDS011;9830;41.876;23.474;2023-04-15T01:54:10;3.40;;;1.50;;
19388;SDS011;9830;41.876;23.474;2023-04-15T01:56:36;9.93;;;1.80;;
19388;SDS011;9830;41.876;23.474;2023-04-15T01:59:02;1.70;;;1.60;;
19388;SDS011;9830;41.876;23.474;2023-04-15T02:01:28;9.53;;;2.30;;
19388;SDS011;9830;41.876;23.474;2023-04-15T02:03:54;1.53;;;1.43;;
19388;SDS011;9830;41.876;23.474;2023-04-15T02:06:19;4.60;;;1.80;;
19388;SDS011;9830;41.876;23.474;2023-04-15T02:08:45;3.10;;;2.43;;
19388;SDS011;9830;41.876;23.474;2023-04-15T02:11:11;1.67;;;1.53;;
19388;SDS011;9830;41.876;23.474;2023-04-15T02:13:36;3.00;;;1.87;;
19388;SDS011;9830;41.876;23.474;2023-04-15T02:16:02;1.20;;;1.10;;
19388;SDS011;9830;41.876;23.474;2023-04-15T02:18:28;5.53;;;0.87;;
19388;SDS011;9830;41.876;23.474;2023-04-15T02:20:53;6.57;;;2.67;;
19388;SDS011;9830;41.876;23.474;2023-04-15T02:23:21;0.57;;;0.57;;
19388;SDS011;9830;41.876;23.474;2023-04-15T02:25:46;5.00;;;3.57;;
19388;SDS011;9830;41.876;23.474;2023-04-15T02:28:12;1.53;;;1.43;;
19388;SDS011;9830;41.876;23.474;2023-04-15T02:30:38;1.23;;;1.23;;
19388;SDS011;9830;41.876;23.474;2023-04-15T02:33:05;6.40;;;1.83;;
19388;SDS011;9830;41.876;23.474;2023-04-15T02:35:31;2.73;;;1.57;;
19388;SDS011;9830;41.876;23.474;2023-04-15T02:37:57;10.93;;;1.80;;
19388;SDS011;9830;41.876;23.474;2023-04-15T02:40:23;2.40;;;1.87;;
19388;SDS011;9830;41.876;23.474;2023-04-15T02:42:48;2.90;;;2.50;;
19388;SDS011;9830;41.876;23.474;2023-04-15T02:45:14;9.27;;;1.77;;
19388;SDS011;9830;41.876;23.474;2023-04-15T02:47:40;3.20;;;1.67;;
19388;SDS011;9830;41.876;23.474;2023-04-15T02:50:07;1.80;;;1.67;;
19388;SDS011;9830;41.876;23.474;2023-04-15T02:52:33;3.60;;;1.50;;
19388;SDS011;9830;41.876;23.474;2023-04-15T02:54:59;3.63;;;2.63;;
19388;SDS011;9830;41.876;23.474;2023-04-15T02:57:27;3.83;;;2.57;;
19388;SDS011;9830;41.876;23.474;2023-04-15T02:59:55;8.03;;;3.60;;
19388;SDS011;9830;41.876;23.474;2023-04-15T03:02:21;2.33;;;1.60;;
19388;SDS011;9830;41.876;23.474;2023-04-15T03:04:47;4.23;;;1.87;;
19388;SDS011;9830;41.876;23.474;2023-04-15T03:07:13;1.60;;;1.27;;
19388;SDS011;9830;41.876;23.474;2023-04-15T03:09:38;0.73;;;0.73;;
19388;SDS011;9830;41.876;23.474;2023-04-15T03:12:05;0.90;;;0.90;;
19388;SDS011;9830;41.876;23.474;2023-04-15T03:14:31;1.20;;;1.10;;
19388;SDS011;9830;41.876;23.474;2023-04-15T03:16:56;4.57;;;1.03;;
19388;SDS011;9830;41.876;23.474;2023-04-15T03:19:23;1.40;;;0.73;;
19388;SDS011;9830;41.876;23.474;2023-04-15T03:21:49;1.97;;;1.37;;
19388;SDS011;9830;41.876;23.474;2023-04-15T03:24:16;0.70;;;0.70;;
19388;SDS011;9830;41.876;23.474;2023-04-15T03:26:41;2.10;;;1.20;;
19388;SDS011;9830;41.876;23.474;2023-04-15T03:29:07;3.60;;;1.80;;
19388;SDS011;9830;41.876;23.474;2023-04-15T03:31:33;3.10;;;0.37;;
19388;SDS011;9830;41.876;23.474;2023-04-15T03:33:59;1.30;;;1.23;;
19388;SDS011;9830;41.876;23.474;2023-04-15T03:36:24;1.80;;;0.50;;
19388;SDS011;9830;41.876;23.474;2023-04-15T03:38:51;0.60;;;0.60;;
19388;SDS011;9830;41.876;23.474;2023-04-15T03:41:17;6.40;;;3.13;;
19388;SDS011;9830;41.876;23.474;2023-04-15T03:43:42;2.10;;;2.00;;
19388;SDS011;9830;41.876;23.474;2023-04-15T03:46:08;7.43;;;1.97;;
19388;SDS011;9830;41.876;23.474;2023-04-15T03:48:34;2.17;;;1.00;;
19388;SDS011;9830;41.876;23.474;2023-04-15T03:51:00;1.10;;;1.07;;
19388;SDS011;9830;41.876;23.474;2023-04-15T03:53:26;0.87;;;0.87;;
19388;SDS011;9830;41.876;23.474;2023-04-15T03:55:51;0.83;;;0.77;;
19388;SDS011;9830;41.876;23.474;2023-04-15T03:58:17;1.70;;;1.03;;
19388;SDS011;9830;41.876;23.474;2023-04-15T04:00:43;7.07;;;1.00;;
19388;SDS011;9830;41.876;23.474;2023-04-15T04:03:08;0.80;;;0.70;;
19388;SDS011;9830;41.876;23.474;2023-04-15T04:05:34;7.77;;;2.43;;
19388;SDS011;9830;41.876;23.474;2023-04-15T04:08:02;1.70;;;1.60;;
19388;SDS011;9830;41.876;23.474;2023-04-15T04:10:28;2.37;;;2.27;;
19388;SDS011;9830;41.876;23.474;2023-04-15T04:12:54;5.87;;;2.17;;
19388;SDS011;9830;41.876;23.474;2023-04-15T04:15:20;1.57;;;1.37;;
19388;SDS011;9830;41.876;23.474;2023-04-15T04:17:45;10.20;;;2.90;;
19388;SDS011;9830;41.876;23.474;2023-04-15T04:20:11;5.30;;;2.67;;
19388;SDS011;9830;41.876;23.474;2023-04-15T04:22:40;4.27;;;1.63;;
19388;SDS011;9830;41.876;23.474;2023-04-15T04:25:06;3.00;;;2.00;;
19388;SDS011;9830;41.876;23.474;2023-04-15T04:27:35;5.23;;;2.53;;
19388;SDS011;9830;41.876;23.474;2023-04-15T04:30:01;2.53;;;1.07;;
19388;SDS011;9830;41.876;23.474;2023-04-15T04:32:27;0.80;;;0.80;;
19388;SDS011;9830;41.876;23.474;2023-04-15T04:34:53;2.13;;;2.03;;
19388;SDS011;9830;41.876;23.474;2023-04-15T04:37:19;0.50;;;0.50;;
19388;SDS011;9830;41.876;23.474;2023-04-15T04:39:44;0.37;;;0.37;;
19388;SDS011;9830;41.876;23.474;2023-04-15T04:42:10;0.90;;;0.90;;
19388;SDS011;9830;41.876;23.474;2023-04-15T04:44:36;1.03;;;1.03;;
19388;SDS011;9830;41.876;23.474;2023-04-15T04:47:02;1.17;;;1.13;;
19388;SDS011;9830;41.876;23.474;2023-04-15T04:49:27;1.67;;;1.57;;
19388;SDS011;9830;41.876;23.474;2023-04-15T04:51:53;1.33;;;1.07;;
19388;SDS011;9830;41.876;23.474;2023-04-15T04:54:26;2.00;;;1.87;;
19388;SDS011;9830;41.876;23.474;2023-04-15T04:56:52;2.43;;;1.83;;
19388;SDS011;9830;41.876;23.474;2023-04-15T04:59:18;1.10;;;0.93;;
19388;SDS011;9830;41.876;23.474;2023-04-15T05:01:45;4.33;;;1.80;;
19388;SDS011;9830;41.876;23.474;2023-04-15T05:04:11;1.60;;;0.97;;
19388;SDS011;9830;41.876;23.474;2023-04-15T05:06:36;1.33;;;1.03;;
19388;SDS011;9830;41.876;23.474;2023-04-15T05:09:02;5.20;;;2.37;;
19388;SDS011;9830;41.876;23.474;2023-04-15T05:11:28;0.90;;;0.90;;
19388;SDS011;9830;41.876;23.474;2023-04-15T05:13:54;1.20;;;0.83;;
19388;SDS011;9830;41.876;23.474;2023-04-15T05:16:19;1.43;;;1.00;;
19388;SDS011;9830;41.876;23.474;2023-04-15T05:18:46;1.30;;;1.03;;
19388;SDS011;9830;41.876;23.474;2023-04-15T05:21:11;1.20;;;1.17;;
19388;SDS011;9830;41.876;23.474;2023-04-15T05:23:37;6.23;;;1.63;;
19388;SDS011;9830;41.876;23.474;2023-04-15T05:26:04;2.53;;;2.30;;
19388;SDS011;9830;41.876;23.474;2023-04-15T05:28:29;8.07;;;0.73;;
19388;SDS011;9830;41.876;23.474;2023-04-15T05:30:55;0.77;;;0.77;;
19388;SDS011;9830;41.876;23.474;2023-04-15T05:33:21;0.67;;;0.63;;
19388;SDS011;9830;41.876;23.474;2023-04-15T05:35:47;1.33;;;1.23;;
19388;SDS011;9830;41.876;23.474;2023-04-15T05:38:13;2.10;;;1.43;;
19388;SDS011;9830;41.876;23.474;2023-04-15T05:40:39;0.90;;;0.40;;
19388;SDS011;9830;41.876;23.474;2023-04-15T05:43:05;1.17;;;1.10;;
19388;SDS011;9830;41.876;23.474;2023-04-15T05:45:31;5.83;;;1.50;;
19388;SDS011;9830;41.876;23.474;2023-04-15T05:47:57;0.80;;;0.77;;
19388;SDS011;9830;41.876;23.474;2023-04-15T05:50:22;1.57;;;1.10;;
19388;SDS011;9830;41.876;23.474;2023-04-15T05:52:48;1.70;;;0.97;;
19388;SDS011;9830;41.876;23.474;2023-04-15T05:55:14;1.87;;;1.07;;
19388;SDS011;9830;41.876;23.474;2023-04-15T05:57:40;0.63;;;0.60;;
19388;SDS011;9830;41.876;23.474;2023-04-15T06:00:06;1.13;;;1.07;;
19388;SDS011;9830;41.876;23.474;2023-04-15T06:02:32;0.80;;;0.80;;
19388;SDS011;9830;41.876;23.474;2023-04-15T06:04:58;1.93;;;1.73;;
19388;SDS011;9830;41.876;23.474;2023-04-15T06:07:24;1.20;;;1.00;;
19388;SDS011;9830;41.876;23.474;2023-04-15T06:09:50;0.40;;;0.37;;
19388;SDS011;9830;41.876;23.474;2023-04-15T06:12:16;2.77;;;1.17;;
19388;SDS011;9830;41.876;23.474;2023-04-15T06:14:42;1.77;;;1.27;;
19388;SDS011;9830;41.876;23.474;2023-04-15T06:17:08;7.63;;;1.40;;
19388;SDS011;9830;41.876;23.474;2023-04-15T06:19:34;0.77;;;0.73;;
19388;SDS011;9830;41.876;23.474;2023-04-15T06:22:01;1.73;;;1.10;;
19388;SDS011;9830;41.876;23.474;2023-04-15T06:24:27;3.17;;;1.20;;
19388;SDS011;9830;41.876;23.474;2023-04-15T06:26:57;1.37;;;1.23;;
19388;SDS011;9830;41.876;23.474;2023-04-15T06:29:23;1.37;;;1.00;;
19388;SDS011;9830;41.876;23.474;2023-04-15T06:31:48;2.57;;;1.03;;
19388;SDS011;9830;41.876;23.474;2023-04-15T06:34:14;6.97;;;1.63;;
19388;SDS011;9830;41.876;23.474;2023-04-15T06:36:40;1.03;;;0.97;;
19388;SDS011;9830;41.876;23.474;2023-04-15T06:39:06;5.50;;;2.13;;
19388;SDS011;9830;41.876;23.474;2023-04-15T06:41:32;0.93;;;0.70;;
19388;SDS011;9830;41.876;23.474;2023-04-15T06:43:59;1.30;;;1.20;;
19388;SDS011;9830;41.876;23.474;2023-04-15T06:46:25;2.47;;;1.27;;
19388;SDS011;9830;41.876;23.474;2023-04-15T06:48:51;1.67;;;1.33;;
19388;SDS011;9830;41.876;23.474;2023-04-15T06:51:17;2.83;;;1.33;;
19388;SDS011;9830;41.876;23.474;2023-04-15T06:53:43;1.57;;;1.13;;
19388;SDS011;9830;41.876;23.474;2023-04-15T06:56:12;0.70;;;0.70;;
19388;SDS011;9830;41.876;23.474;2023-04-15T06:58:38;0.70;;;0.70;;
19388;SDS011;9830;41.876;23.474;2023-04-15T07:01:04;1.10;;;1.00;;
19388;SDS011;9830;41.876;23.474;2023-04-15T07:03:30;6.23;;;1.37;;
19388;SDS011;9830;41.876;23.474;2023-04-15T07:05:56;1.30;;;1.10;;
19388;SDS011;9830;41.876;23.474;2023-04-15T07:08:22;1.57;;;1.00;;
19388;SDS011;9830;41.876;23.474;2023-04-15T07:10:50;1.17;;;1.17;;
19388;SDS011;9830;41.876;23.474;2023-04-15T07:13:16;5.07;;;2.17;;
19388;SDS011;9830;41.876;23.474;2023-04-15T07:15:42;4.03;;;3.00;;
19388;SDS011;9830;41.876;23.474;2023-04-15T07:18:07;1.37;;;1.27;;
19388;SDS011;9830;41.876;23.474;2023-04-15T07:20:33;1.50;;;1.40;;
19388;SDS011;9830;41.876;23.474;2023-04-15T07:23:00;1.47;;;1.40;;
19388;SDS011;9830;41.876;23.474;2023-04-15T07:25:25;2.33;;;2.10;;
19388;SDS011;9830;41.876;23.474;2023-04-15T07:27:51;2.20;;;2.10;;
19388;SDS011;9830;41.876;23.474;2023-04-15T07:30:18;1.95;;;1.85;;
19388;SDS011;9830;41.876;23.474;2023-04-15T07:32:43;1.92;;;1.83;;
19388;SDS011;9830;41.876;23.474;2023-04-15T07:35:09;1.45;;;1.45;;
19388;SDS011;9830;41.876;23.474;2023-04-15T07:37:35;2.33;;;2.17;;
19388;SDS011;9830;41.876;23.474;2023-04-15T07:40:01;3.63;;;1.38;;
19388;SDS011;9830;41.876;23.474;2023-04-15T07:42:31;4.45;;;1.48;;
19388;SDS011;9830;41.876;23.474;2023-04-15T07:44:58;5.75;;;2.85;;
19388;SDS011;9830;41.876;23.474;2023-04-15T07:47:24;1.63;;;1.52;;
19388;SDS011;9830;41.876;23.474;2023-04-15T07:49:51;0.47;;;0.47;;
19388;SDS011;9830;41.876;23.474;2023-04-15T07:52:17;0.90;;;0.90;;
19388;SDS011;9830;41.876;23.474;2023-04-15T07:54:43;0.57;;;0.57;;
19388;SDS011;9830;41.876;23.474;2023-04-15T07:57:09;0.80;;;0.80;;
19388;SDS011;9830;41.876;23.474;2023-04-15T07:59:36;0.98;;;0.70;;
19388;SDS011;9830;41.876;23.474;2023-04-15T08:02:01;3.22;;;1.45;;
19388;SDS011;9830;41.876;23.474;2023-04-15T08:04:28;0.57;;;0.57;;
19388;SDS011;9830;41.876;23.474;2023-04-15T08:06:53;0.17;;;0.17;;
19388;SDS011;9830;41.876;23.474;2023-04-15T08:09:19;0.93;;;0.52;;
19388;SDS011;9830;41.876;23.474;2023-04-15T08:11:47;5.57;;;1.63;;
19388;SDS011;9830;41.876;23.474;2023-04-15T08:14:13;0.95;;;0.80;;
19388;SDS011;9830;41.876;23.474;2023-04-15T08:16:39;0.93;;;0.80;;
19388;SDS011;9830;41.876;23.474;2023-04-15T08:19:08;4.03;;;1.15;;
19388;SDS011;9830;41.876;23.474;2023-04-15T08:21:35;1.83;;;0.77;;
19388;SDS011;9830;41.876;23.474;2023-04-15T08:24:00;2.50;;;1.33;;
19388;SDS011;9830;41.876;23.474;2023-04-15T08:26:27;1.15;;;1.02;;
19388;SDS011;9830;41.876;23.474;2023-04-15T08:28:53;0.55;;;0.55;;
19388;SDS011;9830;41.876;23.474;2023-04-15T08:31:19;1.08;;;1.08;;
19388;SDS011;9830;41.876;23.474;2023-04-15T08:33:46;1.27;;;0.77;;
19388;SDS011;9830;41.876;23.474;2023-04-15T08:36:12;0.85;;;0.85;;
19388;SDS011;9830;41.876;23.474;2023-04-15T08:38:38;0.52;;;0.52;;
19388;SDS011;9830;41.876;23.474;2023-04-15T08:41:10;4.10;;;0.68;;
19388;SDS011;9830;41.876;23.474;2023-04-15T08:43:52;0.55;;;0.55;;
19388;SDS011;9830;41.876;23.474;2023-04-15T08:46:22;0.10;;;0.10;;
19388;SDS011;9830;41.876;23.474;2023-04-15T08:48:48;0.32;;;0.32;;
19388;SDS011;9830;41.876;23.474;2023-04-15T08:51:15;0.77;;;0.77;;
19388;SDS011;9830;41.876;23.474;2023-04-15T08:53:43;0.45;;;0.45;;
19388;SDS011;9830;41.876;23.474;2023-04-15T08:56:11;0.60;;;0.60;;
19388;SDS011;9830;41.876;23.474;2023-04-15T08:58:39;0.63;;;0.63;;
19388;SDS011;9830;41.876;23.474;2023-04-15T09:01:05;0.50;;;0.45;;
19388;SDS011;9830;41.876;23.474;2023-04-15T09:03:32;0.80;;;0.55;;
19388;SDS011;9830;41.876;23.474;2023-04-15T09:05:58;0.80;;;0.80;;
19388;SDS011;9830;41.876;23.474;2023-04-15T09:08:24;0.35;;;0.35;;
19388;SDS011;9830;41.876;23.474;2023-04-15T09:10:50;0.75;;;0.75;;
19388;SDS011;9830;41.876;23.474;2023-04-15T09:13:17;1.45;;;0.82;;
19388;SDS011;9830;41.876;23.474;2023-04-15T09:15:43;0.30;;;0.30;;
19388;SDS011;9830;41.876;23.474;2023-04-15T09:18:10;0.28;;;0.28;;
19388;SDS011;9830;41.876;23.474;2023-04-15T09:20:38;0.20;;;0.20;;
19388;SDS011;9830;41.876;23.474;2023-04-15T09:23:12;0.20;;;0.20;;
19388;SDS011;9830;41.876;23.474;2023-04-15T09:25:40;0.35;;;0.35;;
19388;SDS011;9830;41.876;23.474;2023-04-15T09:28:06;0.40;;;0.30;;
19388;SDS011;9830;41.876;23.474;2023-04-15T09:30:35;0.73;;;0.57;;
19388;SDS011;9830;41.876;23.474;2023-04-15T09:33:02;0.15;;;0.15;;
19388;SDS011;9830;41.876;23.474;2023-04-15T09:35:32;0.30;;;0.27;;
19388;SDS011;9830;41.876;23.474;2023-04-15T09:38:04;0.57;;;0.13;;
19388;SDS011;9830;41.876;23.474;2023-04-15T09:40:41;1.27;;;0.67;;
19388;SDS011;9830;41.876;23.474;2023-04-15T09:43:07;0.30;;;0.30;;
19388;SDS011;9830;41.876;23.474;2023-04-15T09:45:37;0.00;;;0.00;;
19388;SDS011;9830;41.876;23.474;2023-04-15T09:48:22;0.00;;;0.00;;
19388;SDS011;9830;41.876;23.474;2023-04-15T09:50:51;0.00;;;0.00;;
19388;SDS011;9830;41.876;23.474;2023-04-15T09:53:22;0.30;;;0.20;;
19388;SDS011;9830;41.876;23.474;2023-04-15T09:55:57;0.28;;;0.28;;
19388;SDS011;9830;41.876;23.474;2023-04-15T09:58:28;1.23;;;0.47;;
19388;SDS011;9830;41.876;23.474;2023-04-15T10:00:56;0.00;;;0.00;;
19388;SDS011;9830;41.876;23.474;2023-04-15T10:03:24;0.10;;;0.10;;
19388;SDS011;9830;41.876;23.474;2023-04-15T10:05:52;0.37;;;0.33;;
19388;SDS011;9830;41.876;23.474;2023-04-15T10:08:25;0.10;;;0.10;;
19388;SDS011;9830;41.876;23.474;2023-04-15T10:10:53;2.10;;;0.57;;
19388;SDS011;9830;41.876;23.474;2023-04-15T10:13:20;1.20;;;0.63;;
19388;SDS011;9830;41.876;23.474;2023-04-15T10:15:49;0.40;;;0.10;;
19388;SDS011;9830;41.876;23.474;2023-04-15T10:18:18;0.13;;;0.13;;
19388;SDS011;9830;41.876;23.474;2023-04-15T10:20:46;0.30;;;0.30;;
19388;SDS011;9830;41.876;23.474;2023-04-15T10:23:12;0.20;;;0.20;;
19388;SDS011;9830;41.876;23.474;2023-04-15T10:25:40;0.37;;;0.37;;
19388;SDS011;9830;41.876;23.474;2023-04-15T10:28:07;0.53;;;0.50;;
19388;SDS011;9830;41.876;23.474;2023-04-15T10:30:33;0.23;;;0.23;;
19388;SDS011;9830;41.876;23.474;2023-04-15T10:33:00;0.20;;;0.10;;
19388;SDS011;9830;41.876;23.474;2023-04-15T10:35:28;0.00;;;0.00;;
19388;SDS011;9830;41.876;23.474;2023-04-15T10:37:58;1.95;;;0.20;;
19388;SDS011;9830;41.876;23.474;2023-04-15T10:42:55;0.00;;;0.00;;
19388;SDS011;9830;41.876;23.474;2023-04-15T10:45:30;0.30;;;0.30;;
19388;SDS011;9830;41.876;23.474;2023-04-15T10:48:00;0.00;;;0.00;;
19388;SDS011;9830;41.876;23.474;2023-04-15T10:50:27;0.00;;;0.00;;
19388;SDS011;9830;41.876;23.474;2023-04-15T10:52:55;0.10;;;0.10;;
19388;SDS011;9830;41.876;23.474;2023-04-15T10:55:22;0.77;;;0.40;;
19388;SDS011;9830;41.876;23.474;2023-04-15T10:57:50;0.17;;;0.17;;
19388;SDS011;9830;41.876;23.474;2023-04-15T11:00:27;0.10;;;0.10;;
19388;SDS011;9830;41.876;23.474;2023-04-15T11:02:58;0.10;;;0.10;;
19388;SDS011;9830;41.876;23.474;2023-04-15T11:08:05;0.10;;;0.10;;
19388;SDS011;9830;41.876;23.474;2023-04-15T11:15:35;0.10;;;0.10;;
19388;SDS011;9830;41.876;23.474;2023-04-15T11:20:43;1.47;;;0.73;;
19388;SDS011;9830;41.876;23.474;2023-04-15T11:23:09;0.10;;;0.10;;
19388;SDS011;9830;41.876;23.474;2023-04-15T11:25:35;0.20;;;0.20;;
19388;SDS011;9830;41.876;23.474;2023-04-15T11:28:02;0.00;;;0.00;;
19388;SDS011;9830;41.876;23.474;2023-04-15T11:30:32;0.13;;;0.13;;
19388;SDS011;9830;41.876;23.474;2023-04-15T11:33:01;0.10;;;0.10;;
19388;SDS011;9830;41.876;23.474;2023-04-15T11:35:29;0.57;;;0.23;;
19388;SDS011;9830;41.876;23.474;2023-04-15T11:37:55;0.10;;;0.10;;
19388;SDS011;9830;41.876;23.474;2023-04-15T11:40:22;0.47;;;0.30;;
19388;SDS011;9830;41.876;23.474;2023-04-15T11:43:05;0.00;;;0.00;;
19388;SDS011;9830;41.876;23.474;2023-04-15T11:45:33;0.47;;;0.27;;
19388;SDS011;9830;41.876;23.474;2023-04-15T11:48:09;1.03;;;0.67;;
19388;SDS011;9830;41.876;23.474;2023-04-15T11:50:36;0.33;;;0.33;;
19388;SDS011;9830;41.876;23.474;2023-04-15T11:53:05;0.40;;;0.40;;
19388;SDS011;9830;41.876;23.474;2023-04-15T11:55:43;0.10;;;0.10;;
19388;SDS011;9830;41.876;23.474;2023-04-15T12:00:48;0.00;;;0.00;;
19388;SDS011;9830;41.876;23.474;2023-04-15T12:06:01;0.10;;;0.10;;
19388;SDS011;9830;41.876;23.474;2023-04-15T12:11:33;0.30;;;0.30;;
19388;SDS011;9830;41.876;23.474;2023-04-15T12:16:46;0.10;;;0.10;;
19388;SDS011;9830;41.876;23.474;2023-04-15T12:19:15;0.00;;;0.00;;
19388;SDS011;9830;41.876;23.474;2023-04-15T12:21:43;0.30;;;0.23;;
19388;SDS011;9830;41.876;23.474;2023-04-15T12:24:11;0.60;;;0.43;;
19388;SDS011;9830;41.876;23.474;2023-04-15T12:26:44;0.13;;;0.13;;
19388;SDS011;9830;41.876;23.474;2023-04-15T12:29:13;0.00;;;0.00;;
19388;SDS011;9830;41.876;23.474;2023-04-15T12:34:30;0.00;;;0.00;;
19388;SDS011;9830;41.876;23.474;2023-04-15T12:37:01;0.83;;;0.27;;
19388;SDS011;9830;41.876;23.474;2023-04-15T12:39:34;0.10;;;0.10;;
19388;SDS011;9830;41.876;23.474;2023-04-15T12:42:00;0.20;;;0.20;;
19388;SDS011;9830;41.876;23.474;2023-04-15T12:44:27;0.43;;;0.33;;
19388;SDS011;9830;41.876;23.474;2023-04-15T12:46:54;0.03;;;0.03;;
19388;SDS011;9830;41.876;23.474;2023-04-15T12:49:20;0.10;;;0.10;;
19388;SDS011;9830;41.876;23.474;2023-04-15T12:51:51;0.23;;;0.23;;
19388;SDS011;9830;41.876;23.474;2023-04-15T12:54:18;0.00;;;0.00;;
19388;SDS011;9830;41.876;23.474;2023-04-15T12:56:45;0.00;;;0.00;;
19388;SDS011;9830;41.876;23.474;2023-04-15T12:59:12;0.27;;;0.27;;
19388;SDS011;9830;41.876;23.474;2023-04-15T13:01:39;0.00;;;0.00;;
19388;SDS011;9830;41.876;23.474;2023-04-15T13:04:05;0.10;;;0.10;;
19388;SDS011;9830;41.876;23.474;2023-04-15T13:06:31;0.00;;;0.00;;
19388;SDS011;9830;41.876;23.474;2023-04-15T13:08:58;0.40;;;0.40;;
19388;SDS011;9830;41.876;23.474;2023-04-15T13:11:25;1.97;;;0.30;;
19388;SDS011;9830;41.876;23.474;2023-04-15T13:13:51;0.10;;;0.10;;
19388;SDS011;9830;41.876;23.474;2023-04-15T13:16:17;0.00;;;0.00;;
19388;SDS011;9830;41.876;23.474;2023-04-15T13:18:43;0.00;;;0.00;;
19388;SDS011;9830;41.876;23.474;2023-04-15T13:21:15;0.00;;;0.00;;
19388;SDS011;9830;41.876;23.474;2023-04-15T13:23:42;0.10;;;0.10;;
19388;SDS011;9830;41.876;23.474;2023-04-15T13:26:08;0.00;;;0.00;;
19388;SDS011;9830;41.876;23.474;2023-04-15T13:28:33;0.07;;;0.07;;
19388;SDS011;9830;41.876;23.474;2023-04-15T13:31:00;1.03;;;0.40;;
19388;SDS011;9830;41.876;23.474;2023-04-15T13:33:26;0.83;;;0.33;;
19388;SDS011;9830;41.876;23.474;2023-04-15T13:35:52;0.00;;;0.00;;
19388;SDS011;9830;41.876;23.474;2023-04-15T13:38:17;0.17;;;0.13;;
19388;SDS011;9830;41.876;23.474;2023-04-15T13:40:43;0.00;;;0.00;;
19388;SDS011;9830;41.876;23.474;2023-04-15T13:43:09;1.90;;;0.67;;
19388;SDS011;9830;41.876;23.474;2023-04-15T13:45:36;0.10;;;0.10;;
19388;SDS011;9830;41.876;23.474;2023-04-15T13:48:02;0.00;;;0.00;;
19388;SDS011;9830;41.876;23.474;2023-04-15T13:50:28;0.93;;;0.50;;
19388;SDS011;9830;41.876;23.474;2023-04-15T13:52:54;0.10;;;0.10;;
19388;SDS011;9830;41.876;23.474;2023-04-15T13:55:20;2.27;;;0.60;;
19388;SDS011;9830;41.876;23.474;2023-04-15T13:57:45;0.43;;;0.27;;
19388;SDS011;9830;41.876;23.474;2023-04-15T14:00:11;0.00;;;0.00;;
19388;SDS011;9830;41.876;23.474;2023-04-15T14:02:38;0.10;;;0.10;;
19388;SDS011;9830;41.876;23.474;2023-04-15T14:05:04;0.00;;;0.00;;
19388;SDS011;9830;41.876;23.474;2023-04-15T14:07:30;0.60;;;0.23;;
19388;SDS011;9830;41.876;23.474;2023-04-15T14:09:56;0.00;;;0.00;;
19388;SDS011;9830;41.876;23.474;2023-04-15T14:12:22;0.10;;;0.10;;
19388;SDS011;9830;41.876;23.474;2023-04-15T14:14:47;0.00;;;0.00;;
19388;SDS011;9830;41.876;23.474;2023-04-15T14:17:13;0.00;;;0.00;;
19388;SDS011;9830;41.876;23.474;2023-04-15T14:19:39;0.00;;;0.00;;
19388;SDS011;9830;41.876;23.474;2023-04-15T14:22:04;0.00;;;0.00;;
19388;SDS011;9830;41.876;23.474;2023-04-15T14:24:30;0.00;;;0.00;;
19388;SDS011;9830;41.876;23.474;2023-04-15T14:26:57;0.10;;;0.10;;
19388;SDS011;9830;41.876;23.474;2023-04-15T14:29:23;0.00;;;0.00;;
19388;SDS011;9830;41.876;23.474;2023-04-15T14:31:48;0.07;;;0.07;;
19388;SDS011;9830;41.876;23.474;2023-04-15T14:34:15;0.10;;;0.10;;
19388;SDS011;9830;41.876;23.474;2023-04-15T14:36:41;0.40;;;0.27;;
19388;SDS011;9830;41.876;23.474;2023-04-15T14:39:06;1.50;;;0.33;;
19388;SDS011;9830;41.876;23.474;2023-04-15T14:41:32;9.30;;;0.80;;
19388;SDS011;9830;41.876;23.474;2023-04-15T14:43:59;0.00;;;0.00;;
19388;SDS011;9830;41.876;23.474;2023-04-15T14:46:25;0.10;;;0.10;;
19388;SDS011;9830;41.876;23.474;2023-04-15T14:48:51;0.00;;;0.00;;
19388;SDS011;9830;41.876;23.474;2023-04-15T14:51:17;0.10;;;0.10;;
19388;SDS011;9830;41.876;23.474;2023-04-15T14:53:43;0.07;;;0.07;;
19388;SDS011;9830;41.876;23.474;2023-04-15T14:56:09;0.00;;;0.00;;
19388;SDS011;9830;41.876;23.474;2023-04-15T14:58:35;0.30;;;0.30;;
19388;SDS011;9830;41.876;23.474;2023-04-15T15:01:01;0.37;;;0.30;;
19388;SDS011;9830;41.876;23.474;2023-04-15T15:03:28;1.83;;;0.40;;
19388;SDS011;9830;41.876;23.474;2023-04-15T15:05:53;0.30;;;0.10;;
19388;SDS011;9830;41.876;23.474;2023-04-15T15:08:19;0.03;;;0.03;;
19388;SDS011;9830;41.876;23.474;2023-04-15T15:10:45;1.90;;;0.30;;
19388;SDS011;9830;41.876;23.474;2023-04-15T15:13:11;0.33;;;0.30;;